Time;durP1;ratioP1;P1;durP2;ratioP2;P2;SDS_P1;SDS_P2;PMS_P1;PMS_P2;Temp;Humidity;BMP_temperature;BMP_pressure;BME280_temperature;BME280_humidity;BME280_pressure;Samples;Min_cycle;Max_cycle;Signal;HPM_P1;HPM_P2
2022/03/07 00:01:55;;;;;;;26.77;14.90;;;-3274.10;91.80;;;;;;5040188;28;20542;-81
2022/03/07 00:04:21;;;;;;;26.10;15.23;;;-3274.10;91.80;;;;;;5064793;28;20399;-80
2022/03/07 00:06:47;;;;;;;29.52;13.93;;;-3274.10;91.90;;;;;;5035752;28;20080;-80
2022/03/07 00:09:13;;;;;;;24.40;14.80;;;-3274.10;91.80;;;;;;5037178;28;20610;-80
2022/03/07 00:11:39;;;;;;;26.13;15.43;;;-3274.10;91.90;;;;;;5034539;28;20475;-80
2022/03/07 00:14:05;;;;;;;35.70;15.38;;;-3274.10;91.90;;;;;;5063749;28;20021;-80
2022/03/07 00:16:31;;;;;;;27.60;15.90;;;-3274.00;91.90;;;;;;5045559;28;20034;-80
2022/03/07 00:18:57;;;;;;;28.38;16.50;;;-3274.00;91.90;;;;;;5061640;28;20234;-80
2022/03/07 00:21:23;;;;;;;28.67;15.30;;;-3274.00;91.90;;;;;;5048543;28;20029;-80
2022/03/07 00:23:50;;;;;;;29.55;17.02;;;-3274.00;91.90;;;;;;5050166;28;20025;-80
2022/03/07 00:26:19;;;;;;;31.52;16.90;;;-3274.00;92.00;;;;;;5043717;28;20028;-80
2022/03/07 00:28:46;;;;;;;30.75;16.65;;;-3274.00;92.00;;;;;;5034625;28;20022;-80
2022/03/07 00:31:12;;;;;;;30.42;16.50;;;-3274.00;92.00;;;;;;5048274;28;20102;-80
2022/03/07 00:33:38;;;;;;;27.05;15.93;;;-3274.00;92.00;;;;;;5054164;28;20060;-80
2022/03/07 00:36:05;;;;;;;29.83;17.40;;;-3274.00;91.90;;;;;;5041143;28;20475;-80
2022/03/07 00:38:31;;;;;;;30.17;17.48;;;-3273.90;91.90;;;;;;5042929;28;20032;-80
2022/03/07 00:40:57;;;;;;;27.83;17.17;;;-3273.90;91.90;;;;;;5043352;28;20033;-81
2022/03/07 00:43:22;;;;;;;30.73;17.25;;;-3273.90;92.00;;;;;;5047982;28;20448;-80
2022/03/07 00:45:48;;;;;;;28.10;16.85;;;-3273.90;92.00;;;;;;5051102;28;20480;-80
2022/03/07 00:48:15;;;;;;;40.45;18.08;;;-3273.90;91.90;;;;;;5040289;28;20034;-80
2022/03/07 00:50:42;;;;;;;33.47;18.08;;;-3274.00;92.00;;;;;;5042489;28;20557;-80
2022/03/07 00:53:13;;;;;;;37.65;17.80;;;-3274.00;92.00;;;;;;5051410;28;20025;-81
2022/03/07 00:55:39;;;;;;;36.95;19.63;;;-3274.10;92.00;;;;;;5041273;28;20396;-80
2022/03/07 00:58:05;;;;;;;40.47;19.40;;;-3274.20;92.20;;;;;;5045599;28;20017;-80
2022/03/07 01:00:32;;;;;;;35.83;19.13;;;-3274.30;92.20;;;;;;5050444;28;20028;-80
2022/03/07 01:02:58;;;;;;;32.92;19.08;;;-3274.50;92.20;;;;;;5052514;28;20033;-79
2022/03/07 01:05:23;;;;;;;38.83;19.02;;;-3274.50;92.20;;;;;;5048451;28;20028;-81
2022/03/07 01:07:49;;;;;;;34.83;18.92;;;-3274.60;92.10;;;;;;5050650;28;20086;-80
2022/03/07 01:10:14;;;;;;;31.98;19.00;;;-3274.70;92.20;;;;;;5049141;28;20025;-81
2022/03/07 01:12:41;;;;;;;35.70;20.08;;;-3274.80;92.10;;;;;;5045293;28;20029;-80
2022/03/07 01:15:08;;;;;;;36.38;20.00;;;-3274.90;92.10;;;;;;5043331;28;20036;-80
2022/03/07 01:17:34;;;;;;;30.42;18.60;;;-3275.00;92.10;;;;;;5045361;28;20057;-80
2022/03/07 01:20:00;;;;;;;32.20;19.02;;;-3275.00;92.00;;;;;;5053478;28;20431;-80
2022/03/07 01:22:25;;;;;;;32.60;19.05;;;-3275.10;92.00;;;;;;5051571;28;20033;-80
2022/03/07 01:24:51;;;;;;;31.05;18.75;;;-3275.20;91.90;;;;;;5050434;28;20487;-80
2022/03/07 01:27:16;;;;;;;34.50;19.13;;;-3275.30;91.90;;;;;;5048075;28;20040;-80
2022/03/07 01:29:42;;;;;;;31.65;18.00;;;-3275.30;91.60;;;;;;5054433;28;20032;-80
2022/03/07 01:32:08;;;;;;;33.03;18.00;;;-3275.30;91.70;;;;;;5049861;28;20084;-81
2022/03/07 01:34:34;;;;;;;26.42;17.08;;;-3275.40;91.60;;;;;;5047436;28;20485;-80
2022/03/07 01:36:59;;;;;;;30.08;17.02;;;-3275.50;91.50;;;;;;5050542;28;20094;-80
2022/03/07 01:39:25;;;;;;;26.48;16.35;;;-3275.50;91.40;;;;;;5052360;28;20021;-80
2022/03/07 01:41:50;;;;;;;27.58;16.92;;;-3275.60;91.20;;;;;;5049499;28;20086;-80
2022/03/07 01:44:23;;;;;;;27.42;15.57;;;-3275.60;91.10;;;;;;5052942;28;20033;-81
2022/03/07 01:46:49;;;;;;;24.88;15.40;;;-3275.60;91.20;;;;;;5047499;28;20029;-80
2022/03/07 01:49:15;;;;;;;38.13;17.08;;;-3275.70;91.10;;;;;;5047367;28;20052;-80
2022/03/07 01:51:45;;;;;;;29.35;17.80;;;-3275.80;91.20;;;;;;5039906;28;20025;-81
2022/03/07 01:54:14;;;;;;;46.15;19.20;;;-3275.80;91.20;;;;;;5040794;28;20029;-80
2022/03/07 01:56:42;;;;;;;42.38;18.58;;;-3275.80;91.20;;;;;;5034350;28;20101;-80
2022/03/07 01:59:11;;;;;;;78.65;19.77;;;-3275.80;91.40;;;;;;5036685;28;20044;-81
2022/03/07 02:01:37;;;;;;;59.97;20.25;;;-3275.80;91.50;;;;;;5044608;28;20029;-81
2022/03/07 02:04:03;;;;;;;66.30;21.10;;;-3275.80;91.70;;;;;;5049660;28;20136;-81
2022/03/07 02:06:29;;;;;;;100.80;22.27;;;-3275.80;92.00;;;;;;5043886;28;20449;-81
2022/03/07 02:08:57;;;;;;;84.20;22.55;;;-3275.80;92.20;;;;;;5035793;28;20030;-80
2022/03/07 02:11:24;;;;;;;71.93;21.98;;;-3275.90;92.40;;;;;;5041575;28;20627;-81
2022/03/07 02:13:49;;;;;;;76.65;24.25;;;-3275.80;92.60;;;;;;5043120;28;20021;-80
2022/03/07 02:16:17;;;;;;;102.78;23.13;;;-3275.90;92.80;;;;;;5048224;28;20496;-80
2022/03/07 02:18:42;;;;;;;93.65;22.77;;;-3275.90;92.70;;;;;;5046875;28;20051;-81
2022/03/07 02:21:16;;;;;;;177.98;25.58;;;-3275.90;92.90;;;;;;5040410;28;20029;-80
2022/03/07 02:23:44;;;;;;;113.53;24.35;;;-3276.00;93.00;;;;;;5050082;28;20484;-80
2022/03/07 02:26:17;;;;;;;76.55;19.42;;;-3275.90;93.10;;;;;;5043472;28;20028;-80
2022/03/07 02:28:45;;;;;;;88.50;19.42;;;-3275.90;93.20;;;;;;5039803;28;20025;-80
2022/03/07 02:31:15;;;;;;;119.47;21.95;;;-3276.00;93.40;;;;;;5046580;28;20036;-80
2022/03/07 02:33:40;;;;;;;89.78;18.95;;;-3276.00;93.50;;;;;;5042607;28;20024;-81
2022/03/07 02:36:06;;;;;;;111.32;20.75;;;-3276.00;93.60;;;;;;5051664;28;20043;-81
2022/03/07 02:38:32;;;;;;;115.15;21.98;;;-3276.00;93.50;;;;;;5044986;28;20048;-80
2022/03/07 02:40:57;;;;;;;82.32;21.08;;;-3276.00;93.70;;;;;;5044135;28;20033;-80
2022/03/07 02:43:22;;;;;;;149.15;22.25;;;-3276.00;93.70;;;;;;5051257;28;20476;-80
2022/03/07 02:45:48;;;;;;;116.65;20.48;;;-3276.00;93.80;;;;;;5049444;28;20084;-80
2022/03/07 02:48:14;;;;;;;111.38;22.30;;;-3275.90;93.70;;;;;;5040257;28;20029;-80
2022/03/07 02:50:40;;;;;;;75.32;21.80;;;-3275.90;93.90;;;;;;5051669;28;20108;-79
2022/03/07 02:53:06;;;;;;;73.65;20.35;;;-3275.90;94.00;;;;;;5039716;28;20120;-80
2022/03/07 02:55:32;;;;;;;81.40;22.63;;;-3275.90;93.80;;;;;;5044881;28;20167;-80
2022/03/07 02:57:57;;;;;;;95.22;21.95;;;-3275.90;94.00;;;;;;5039863;28;20412;-80
2022/03/07 03:00:23;;;;;;;172.25;22.67;;;-3275.90;94.00;;;;;;5047236;28;20101;-80
2022/03/07 03:02:49;;;;;;;130.65;22.23;;;-3275.90;94.10;;;;;;5043741;28;20025;-80
2022/03/07 03:05:14;;;;;;;189.77;22.17;;;-3275.90;94.10;;;;;;5047748;28;20033;-80
2022/03/07 03:07:40;;;;;;;172.70;22.10;;;-3275.70;93.90;;;;;;5042282;28;20053;-80
2022/03/07 03:10:06;;;;;;;237.27;21.55;;;-3275.70;94.10;;;;;;5046447;28;20048;-80
2022/03/07 03:12:32;;;;;;;153.23;22.02;;;-3275.70;94.20;;;;;;5041463;28;20035;-80
2022/03/07 03:14:58;;;;;;;152.38;20.48;;;-3275.60;94.20;;;;;;5035026;28;20033;-80
2022/03/07 03:17:24;;;;;;;140.00;21.35;;;-3275.50;94.20;;;;;;5045721;28;20032;-80
2022/03/07 03:19:50;;;;;;;170.38;21.13;;;-3275.60;94.40;;;;;;5050897;28;20048;-80
2022/03/07 03:22:16;;;;;;;179.20;24.05;;;-3275.60;94.30;;;;;;5044153;28;20033;-80
2022/03/07 03:24:41;;;;;;;169.07;21.88;;;-3275.50;94.30;;;;;;5045807;28;20029;-80
2022/03/07 03:27:07;;;;;;;202.85;24.02;;;-3275.50;94.40;;;;;;5044545;28;20085;-80
2022/03/07 03:29:32;;;;;;;112.60;21.83;;;-3275.50;94.40;;;;;;5049024;28;20059;-80
2022/03/07 03:31:58;;;;;;;151.20;21.77;;;-3275.50;94.40;;;;;;5043946;28;20029;-80
2022/03/07 03:34:24;;;;;;;157.32;24.25;;;-3275.50;94.50;;;;;;5043086;28;20018;-80
2022/03/07 03:36:50;;;;;;;176.30;22.45;;;-3275.50;94.50;;;;;;5039681;28;20044;-80
2022/03/07 03:39:15;;;;;;;172.15;22.30;;;-3275.40;94.40;;;;;;5035850;28;20034;-81
2022/03/07 03:41:41;;;;;;;152.85;23.98;;;-3275.40;94.40;;;;;;5048827;28;20107;-80
2022/03/07 03:44:06;;;;;;;131.05;23.30;;;-3275.40;94.60;;;;;;5045147;28;20097;-80
2022/03/07 03:46:32;;;;;;;119.95;22.90;;;-3275.50;94.70;;;;;;5052660;28;20025;-80
2022/03/07 03:48:58;;;;;;;222.38;26.33;;;-3275.50;94.70;;;;;;5043341;28;20112;-80
2022/03/07 03:51:24;;;;;;;113.15;25.33;;;-3275.50;94.60;;;;;;5052724;28;20029;-80
2022/03/07 03:53:49;;;;;;;165.55;24.15;;;-3275.50;94.70;;;;;;5049996;28;20411;-80
2022/03/07 03:56:15;;;;;;;97.10;23.17;;;-3275.50;94.70;;;;;;5039684;28;20048;-80
2022/03/07 03:58:40;;;;;;;186.43;26.30;;;-3275.50;94.80;;;;;;5056065;28;20472;-80
2022/03/07 04:01:06;;;;;;;255.90;24.08;;;-3275.40;94.60;;;;;;5047955;28;20043;-80
2022/03/07 04:03:31;;;;;;;142.73;22.73;;;-3275.40;94.40;;;;;;5042740;28;20112;-79
2022/03/07 04:05:57;;;;;;;300.17;26.42;;;-3275.40;94.60;;;;;;5051536;28;20024;-79
2022/03/07 04:08:22;;;;;;;269.35;25.77;;;-3275.40;94.70;;;;;;5037943;28;20076;-80
2022/03/07 04:10:48;;;;;;;273.27;26.88;;;-3275.30;94.50;;;;;;5044053;28;20059;-80
2022/03/07 04:13:13;;;;;;;148.32;22.75;;;-3275.30;94.70;;;;;;5038623;28;20029;-79
2022/03/07 04:15:39;;;;;;;109.07;22.88;;;-3275.30;94.70;;;;;;5047953;28;20032;-79
2022/03/07 04:18:06;;;;;;;136.80;22.52;;;-3275.40;94.80;;;;;;5046273;28;20032;-80
2022/03/07 04:20:33;;;;;;;127.25;23.67;;;-3275.30;94.80;;;;;;5054141;28;20055;-80
2022/03/07 04:22:59;;;;;;;247.05;24.65;;;-3275.30;94.80;;;;;;5037693;28;20041;-79
2022/03/07 04:25:25;;;;;;;135.77;21.52;;;-3275.20;94.70;;;;;;5044660;28;20037;-79
2022/03/07 04:27:50;;;;;;;185.63;24.38;;;-3275.20;94.70;;;;;;5049612;28;20029;-81
2022/03/07 04:30:16;;;;;;;263.80;25.27;;;-3275.20;94.70;;;;;;5051175;28;20025;-80
2022/03/07 04:32:41;;;;;;;252.98;25.98;;;-3275.10;94.70;;;;;;5055058;28;20480;-80
2022/03/07 04:35:10;;;;;;;220.50;24.25;;;-3275.20;94.80;;;;;;5055425;28;20050;-80
2022/03/07 04:37:39;;;;;;;231.57;26.73;;;-3275.10;94.80;;;;;;5046814;28;20074;-80
2022/03/07 04:40:06;;;;;;;233.55;24.92;;;-3275.10;94.80;;;;;;5047055;28;20052;-80
2022/03/07 04:42:32;;;;;;;262.15;25.05;;;-3275.00;94.80;;;;;;5056873;28;20068;-80
2022/03/07 04:44:57;;;;;;;211.75;23.95;;;-3275.00;94.80;;;;;;5055998;28;20502;-81
2022/03/07 04:47:23;;;;;;;264.80;24.90;;;-3275.00;94.80;;;;;;5053328;28;20029;-80
2022/03/07 04:49:49;;;;;;;211.07;22.85;;;-3275.00;94.80;;;;;;5056081;28;20025;-80
2022/03/07 04:52:15;;;;;;;245.45;25.23;;;-3275.00;94.90;;;;;;5054049;28;20029;-80
2022/03/07 04:54:40;;;;;;;184.32;22.58;;;-3275.00;94.80;;;;;;5054562;28;20101;-80
2022/03/07 04:57:06;;;;;;;227.38;24.85;;;-3275.00;94.90;;;;;;5050656;28;20111;-80
2022/03/07 04:59:31;;;;;;;217.85;25.60;;;-3274.90;95.00;;;;;;5041278;28;20033;-80
2022/03/07 05:01:57;;;;;;;252.98;25.50;;;-3275.00;95.00;;;;;;5048090;28;20059;-80
2022/03/07 05:04:23;;;;;;;319.30;27.38;;;-3274.90;94.90;;;;;;5055264;28;20075;-80
2022/03/07 05:06:48;;;;;;;182.40;21.95;;;-3275.00;95.10;;;;;;5044457;28;20055;-80
2022/03/07 05:09:13;;;;;;;185.30;24.02;;;-3274.90;95.00;;;;;;5045051;28;20036;-79
2022/03/07 05:11:39;;;;;;;288.77;27.15;;;-3274.90;94.90;;;;;;5038114;28;20452;-79
2022/03/07 05:14:05;;;;;;;94.05;22.80;;;-3274.90;94.90;;;;;;5035641;28;20025;-80
2022/03/07 05:16:30;;;;;;;261.80;25.92;;;-3274.80;94.90;;;;;;5039426;28;20053;-80
2022/03/07 05:18:56;;;;;;;189.63;25.80;;;-3274.80;95.00;;;;;;5063454;28;20128;-80
2022/03/07 05:21:21;;;;;;;269.83;24.48;;;-3274.80;94.90;;;;;;5039484;28;20068;-79
2022/03/07 05:23:47;;;;;;;220.30;24.83;;;-3274.80;95.00;;;;;;5066999;28;20025;-80
2022/03/07 05:26:13;;;;;;;138.48;23.33;;;-3274.80;95.00;;;;;;5043634;28;20029;-79
2022/03/07 05:28:38;;;;;;;137.60;23.27;;;-3274.90;95.00;;;;;;5038516;28;20101;-80
2022/03/07 05:31:05;;;;;;;166.25;22.83;;;-3274.90;95.10;;;;;;5048047;28;20029;-80
2022/03/07 05:33:30;;;;;;;133.10;24.05;;;-3274.90;95.00;;;;;;5062985;28;20079;-80
2022/03/07 05:35:56;;;;;;;100.07;23.10;;;-3275.00;95.10;;;;;;5041924;28;20049;-80
2022/03/07 05:38:21;;;;;;;137.23;22.73;;;-3275.00;95.00;;;;;;5052187;28;20029;-81
2022/03/07 05:40:47;;;;;;;124.88;25.00;;;-3274.90;94.90;;;;;;5049372;28;20461;-80
2022/03/07 05:43:13;;;;;;;138.18;24.65;;;-3274.90;95.10;;;;;;5043990;28;20029;-80
2022/03/07 05:45:38;;;;;;;236.43;26.38;;;-3274.90;95.00;;;;;;5052341;28;20388;-80
2022/03/07 05:48:04;;;;;;;236.50;25.52;;;-3274.80;94.90;;;;;;5048001;28;20075;-80
2022/03/07 05:50:30;;;;;;;183.45;24.05;;;-3274.80;94.80;;;;;;5053530;28;20045;-80
2022/03/07 05:52:55;;;;;;;138.13;21.40;;;-3274.70;94.90;;;;;;5067569;28;20048;-81
2022/03/07 05:55:21;;;;;;;167.40;23.77;;;-3274.70;95.00;;;;;;5038040;28;20124;-80
2022/03/07 05:57:47;;;;;;;188.07;24.60;;;-3274.80;95.00;;;;;;5040126;28;20089;-80
2022/03/07 06:00:13;;;;;;;139.55;21.67;;;-3274.70;95.00;;;;;;5050857;28;20097;-80
2022/03/07 06:02:39;;;;;;;80.50;20.35;;;-3274.70;95.10;;;;;;5040140;28;20033;-80
2022/03/07 06:05:05;;;;;;;144.50;21.58;;;-3274.70;95.00;;;;;;5044980;28;20530;-79
2022/03/07 06:07:31;;;;;;;132.93;21.77;;;-3274.70;95.10;;;;;;5045454;28;20025;-80
2022/03/07 06:09:57;;;;;;;191.63;22.30;;;-3274.80;95.10;;;;;;5046835;28;20061;-80
2022/03/07 06:12:22;;;;;;;96.95;21.02;;;-3274.70;94.90;;;;;;5038986;28;20029;-79
2022/03/07 06:14:48;;;;;;;155.73;23.60;;;-3274.70;95.10;;;;;;5042279;28;20029;-80
2022/03/07 06:17:13;;;;;;;89.18;22.05;;;-3274.80;95.20;;;;;;5038692;28;20061;-80
2022/03/07 06:19:39;;;;;;;146.38;21.60;;;-3274.80;95.30;;;;;;5040289;28;20025;-80
2022/03/07 06:22:05;;;;;;;157.13;22.42;;;-3274.80;95.10;;;;;;5042934;28;20056;-80
2022/03/07 06:24:30;;;;;;;82.72;21.33;;;-3274.80;95.00;;;;;;5047114;28;20047;-81
2022/03/07 06:26:57;;;;;;;133.23;24.17;;;-3274.90;95.10;;;;;;5042966;28;20032;-80
2022/03/07 06:29:23;;;;;;;154.48;22.83;;;-3275.00;95.20;;;;;;5046744;28;20561;-80
2022/03/07 06:31:49;;;;;;;161.95;21.50;;;-3274.80;94.80;;;;;;5040938;28;20454;-80
2022/03/07 06:34:14;;;;;;;222.13;22.67;;;-3274.70;94.70;;;;;;5052744;28;20071;-80
2022/03/07 06:36:40;;;;;;;175.07;23.30;;;-3274.60;94.80;;;;;;5042656;28;20419;-81
2022/03/07 06:39:06;;;;;;;210.55;23.25;;;-3274.60;94.90;;;;;;5049593;28;20032;-80
2022/03/07 06:41:32;;;;;;;151.35;22.55;;;-3274.70;94.90;;;;;;5050125;28;20028;-80
2022/03/07 06:43:59;;;;;;;174.45;19.95;;;-3274.70;94.80;;;;;;5044409;28;20029;-80
2022/03/07 06:46:25;;;;;;;75.85;18.63;;;-3274.70;94.80;;;;;;5045737;28;20144;-80
2022/03/07 06:48:51;;;;;;;137.68;19.98;;;-3274.70;94.90;;;;;;5048805;28;20061;-81
2022/03/07 06:51:18;;;;;;;101.10;20.10;;;-3274.80;94.90;;;;;;5043841;28;20039;-81
2022/03/07 06:53:44;;;;;;;122.85;19.88;;;-3274.70;94.80;;;;;;5046092;28;20044;-80
2022/03/07 06:56:09;;;;;;;233.38;23.42;;;-3274.80;94.90;;;;;;5041913;28;20033;-80
2022/03/07 06:58:35;;;;;;;169.20;21.00;;;-3274.70;94.70;;;;;;5048961;28;20051;-80
2022/03/07 07:01:00;;;;;;;120.55;20.15;;;-3274.80;94.80;;;;;;5046154;28;20029;-80
2022/03/07 07:03:26;;;;;;;163.45;21.88;;;-3274.90;94.90;;;;;;5047729;28;20432;-80
2022/03/07 07:05:52;;;;;;;81.55;19.42;;;-3274.80;94.60;;;;;;5047547;28;20025;-81
2022/03/07 07:08:17;;;;;;;127.20;19.77;;;-3274.90;94.80;;;;;;5035543;28;20017;-80
2022/03/07 07:10:42;;;;;;;96.40;19.23;;;-3275.00;94.80;;;;;;5050855;28;20024;-80
2022/03/07 07:13:14;;;;;;;102.63;19.55;;;-3275.10;94.90;;;;;;5033330;28;20029;-80
2022/03/07 07:15:40;;;;;;;;;;;-3275.10;94.60;;;;;;5045440;28;20067;-81
2022/03/07 07:18:06;;;;;;;140.73;17.95;;;-3275.10;94.60;;;;;;5048881;28;19912;-80
2022/03/07 07:20:31;;;;;;;154.55;18.33;;;-3275.00;94.40;;;;;;5046043;28;20486;-80
2022/03/07 07:22:57;;;;;;;131.52;19.10;;;-3275.00;94.40;;;;;;5046379;28;20021;-80
2022/03/07 07:25:22;;;;;;;125.63;19.70;;;-3275.20;94.60;;;;;;5047330;28;20063;-80
2022/03/07 07:27:48;;;;;;;114.15;19.80;;;-3275.10;94.30;;;;;;5042856;28;20029;-80
2022/03/07 07:30:13;;;;;;;213.63;20.02;;;-3275.20;94.50;;;;;;5049823;28;20025;-80
2022/03/07 07:32:39;;;;;;;164.68;18.20;;;-3275.20;94.10;;;;;;5044079;28;20559;-80
2022/03/07 07:35:06;;;;;;;122.63;17.48;;;-3275.20;94.10;;;;;;5052120;28;20446;-80
2022/03/07 07:37:32;;;;;;;52.67;15.88;;;-3275.30;94.20;;;;;;5039740;28;20068;-80
2022/03/07 07:39:57;;;;;;;116.00;16.10;;;-3275.30;94.30;;;;;;5047974;28;20037;-81
2022/03/07 07:42:23;;;;;;;168.73;17.35;;;-3275.30;94.20;;;;;;5053022;28;20482;-80
2022/03/07 07:44:48;;;;;;;106.78;15.98;;;-3275.20;93.80;;;;;;5046528;28;20070;-80
2022/03/07 07:47:14;;;;;;;149.00;18.00;;;-3275.30;94.00;;;;;;5052060;28;20029;-81
2022/03/07 07:49:39;;;;;;;228.68;20.33;;;-3275.30;94.10;;;;;;5039392;28;20029;-80
2022/03/07 07:52:05;;;;;;;167.85;16.92;;;-3275.40;94.10;;;;;;5041174;28;20025;-80
2022/03/07 07:54:31;;;;;;;138.68;17.88;;;-3275.40;94.00;;;;;;5041164;28;20057;-80
2022/03/07 07:56:58;;;;;;;146.15;16.08;;;-3275.40;93.80;;;;;;5040237;28;20128;-81
2022/03/07 07:59:23;;;;;;;169.05;15.40;;;-3275.50;93.80;;;;;;5040723;28;20033;-80
2022/03/07 08:01:49;;;;;;;169.70;16.25;;;-3275.40;93.70;;;;;;5047575;28;20468;-80
2022/03/07 08:04:14;;;;;;;130.77;16.20;;;-3275.40;93.60;;;;;;5040634;28;20052;-80
2022/03/07 08:06:40;;;;;;;157.10;17.00;;;-3275.60;93.60;;;;;;5053856;28;20395;-80
2022/03/07 08:09:06;;;;;;;58.53;14.57;;;-3275.70;93.60;;;;;;5042761;28;20021;-80
2022/03/07 08:11:32;;;;;;;69.25;15.50;;;-3275.80;93.70;;;;;;5047229;28;20033;-80
2022/03/07 08:13:57;;;;;;;113.43;15.48;;;-3276.10;93.70;;;;;;5045148;28;20030;-80
2022/03/07 08:16:23;;;;;;;109.45;15.95;;;-3276.10;93.20;;;;;;5045500;28;20036;-80
2022/03/07 08:18:48;;;;;;;99.40;14.90;;;-3276.10;93.10;;;;;;5056772;28;20032;-80
2022/03/07 08:21:14;;;;;;;138.25;16.27;;;-3276.20;93.00;;;;;;5049874;28;20037;-80
2022/03/07 08:23:39;;;;;;;102.68;15.15;;;-3276.20;92.80;;;;;;5050760;28;20112;-79
2022/03/07 08:26:05;;;;;;;55.72;14.60;;;-3276.50;93.00;;;;;;5043268;28;20073;-80
2022/03/07 08:28:31;;;;;;;60.60;13.18;;;-3276.40;92.50;;;;;;5042002;28;20032;-80
2022/03/07 08:30:57;;;;;;;102.97;15.65;;;-3276.50;92.10;;;;;;5051380;28;20029;-81
2022/03/07 08:33:23;;;;;;;62.55;14.00;;;-3276.60;92.10;;;;;;5038484;28;20029;-80
2022/03/07 08:35:50;;;;;;;39.05;14.23;;;-3276.60;91.90;;;;;;5037627;28;20042;-81
2022/03/07 08:38:16;;;;;;;107.97;15.15;;;-3276.70;92.20;;;;;;5040682;28;20037;-80
2022/03/07 08:40:41;;;;;;;67.10;15.02;;;-3276.50;91.40;;;;;;5045707;28;20030;-82
2022/03/07 08:43:07;;;;;;;96.82;14.57;;;-3276.70;91.90;;;;;;5054604;28;20060;-80
2022/03/07 08:45:33;;;;;;;31.70;15.57;;;0.00;91.40;;;;;;5053517;28;20487;-80
2022/03/07 08:47:59;;;;;;;25.58;14.90;;;0.20;91.90;;;;;;5047797;28;20346;-82
2022/03/07 08:50:24;;;;;;;21.10;13.75;;;0.40;91.90;;;;;;5047684;28;20033;-81
2022/03/07 08:52:50;;;;;;;52.28;13.25;;;0.40;91.00;;;;;;5040332;28;20045;-81
2022/03/07 08:55:16;;;;;;;33.17;12.48;;;0.30;90.90;;;;;;5037516;28;20507;-81
2022/03/07 08:57:42;;;;;;;18.98;11.90;;;0.30;91.00;;;;;;5047450;28;20628;-81
2022/03/07 09:00:10;;;;;;;58.08;12.18;;;0.60;91.50;;;;;;5051381;28;20049;-81
2022/03/07 09:02:35;;;;;;;35.10;12.45;;;0.60;90.30;;;;;;5058811;28;20087;-81
2022/03/07 09:05:01;;;;;;;24.05;13.18;;;0.70;90.90;;;;;;5056028;28;20017;-81
2022/03/07 09:07:28;;;;;;;27.90;12.95;;;0.70;90.20;;;;;;5055927;28;20017;-81
2022/03/07 09:09:57;;;;;;;38.78;12.52;;;1.30;90.90;;;;;;5049838;28;20021;-81
2022/03/07 09:12:27;;;;;;;37.72;11.00;;;1.20;89.90;;;;;;5040352;28;20037;-81
2022/03/07 09:14:55;;;;;;;31.15;9.98;;;0.80;89.70;;;;;;5057044;28;20029;-81
2022/03/07 09:17:20;;;;;;;43.40;10.85;;;0.80;89.60;;;;;;5046813;28;20036;-81
2022/03/07 09:19:46;;;;;;;19.85;9.30;;;1.00;89.10;;;;;;5054907;28;20488;-81
2022/03/07 09:22:11;;;;;;;20.48;10.70;;;1.20;89.60;;;;;;5047115;28;20087;-81
2022/03/07 09:24:37;;;;;;;13.57;9.43;;;1.20;89.10;;;;;;5048202;28;20048;-81
2022/03/07 09:27:02;;;;;;;17.17;9.63;;;1.40;89.80;;;;;;5051285;28;20379;-81
2022/03/07 09:29:30;;;;;;;13.32;8.90;;;1.60;89.20;;;;;;5039406;28;20459;-81
2022/03/07 09:31:56;;;;;;;13.80;10.13;;;1.50;88.70;;;;;;5042004;28;20029;-81
2022/03/07 09:34:21;;;;;;;15.10;10.00;;;1.60;89.40;;;;;;5048496;28;20033;-81
2022/03/07 09:36:47;;;;;;;15.77;10.35;;;1.70;89.10;;;;;;5038619;28;20033;-81
2022/03/07 09:39:12;;;;;;;13.32;8.90;;;1.90;89.10;;;;;;5056091;28;20548;-81
2022/03/07 09:41:43;;;;;;;17.35;10.70;;;2.10;88.80;;;;;;5044280;28;20035;-81
2022/03/07 09:44:09;;;;;;;19.88;9.77;;;2.10;88.20;;;;;;5053664;28;20078;-81
2022/03/07 09:46:36;;;;;;;18.55;9.00;;;2.40;88.50;;;;;;5062727;28;20029;-81
2022/03/07 09:49:02;;;;;;;12.20;8.50;;;2.30;87.10;;;;;;5052161;28;20032;-83
2022/03/07 09:51:27;;;;;;;11.93;8.93;;;2.60;87.40;;;;;;5042476;28;20091;-82
2022/03/07 09:53:53;;;;;;;12.32;8.00;;;2.30;86.70;;;;;;5054229;28;20123;-82
2022/03/07 09:56:19;;;;;;;10.63;7.75;;;2.20;86.80;;;;;;5062380;28;20041;-82
2022/03/07 09:58:45;;;;;;;12.48;8.10;;;2.90;87.00;;;;;;5062516;28;20029;-81
2022/03/07 10:01:24;;;;;;;12.80;8.63;;;3.10;86.00;;;;;;5067235;28;20044;-81
2022/03/07 10:03:53;;;;;;;12.35;8.32;;;2.80;85.10;;;;;;5047063;28;20028;-82
2022/03/07 10:06:19;;;;;;;11.45;7.75;;;2.60;85.70;;;;;;5049976;28;20049;-82
2022/03/07 10:08:56;;;;;;;13.98;9.10;;;2.60;86.20;;;;;;5040682;28;20048;-81
2022/03/07 10:11:23;;;;;;;12.35;8.77;;;2.40;86.60;;;;;;5042213;28;20671;-81
2022/03/07 10:14:02;;;;;;;11.20;8.25;;;2.10;86.70;;;;;;5045272;28;20022;-81
2022/03/07 10:16:38;;;;;;;13.98;9.95;;;2.60;86.80;;;;;;5051856;28;20057;-82
2022/03/07 10:19:08;;;;;;;14.25;9.80;;;3.50;87.70;;;;;;5043742;28;20036;-82
2022/03/07 10:21:33;;;;;;;13.25;9.77;;;3.70;85.40;;;;;;5050520;28;20040;-81
2022/03/07 10:23:59;;;;;;;13.68;9.45;;;3.50;84.70;;;;;;5047150;28;20025;-81
2022/03/07 10:26:24;;;;;;;14.70;9.45;;;3.80;84.70;;;;;;5035094;28;20061;-81
2022/03/07 10:28:57;;;;;;;12.32;9.18;;;3.50;83.50;;;;;;5047807;28;20045;-82
2022/03/07 10:31:23;;;;;;;13.32;9.32;;;3.80;83.90;;;;;;5054232;28;20048;-82
2022/03/07 10:34:04;;;;;;;13.88;9.13;;;3.80;83.50;;;;;;5039110;28;20447;-82
2022/03/07 10:36:36;;;;;;;13.00;9.40;;;4.30;84.30;;;;;;5046538;28;20094;-82
2022/03/07 10:39:07;;;;;;;11.75;8.80;;;4.20;83.00;;;;;;5045248;28;20068;-82
2022/03/07 10:41:43;;;;;;;;;;;4.30;82.90;;;;;;5043499;28;20065;-82
2022/03/07 10:44:11;;;;;;;12.60;9.30;;;4.40;82.80;;;;;;5053389;28;20394;-81
2022/03/07 10:46:38;;;;;;;13.30;9.73;;;4.50;83.10;;;;;;5052826;28;20032;-83
2022/03/07 10:49:07;;;;;;;13.68;10.13;;;4.70;82.90;;;;;;5051332;28;20014;-81
2022/03/07 10:51:32;;;;;;;14.20;9.45;;;4.80;82.20;;;;;;5045905;28;20488;-81
2022/03/07 10:54:09;;;;;;;12.80;8.65;;;4.90;80.50;;;;;;5048700;28;20048;-81
2022/03/07 10:56:36;;;;;;;14.55;9.52;;;4.90;81.20;;;;;;5042374;28;20361;-81
2022/03/07 10:59:06;;;;;;;12.10;8.13;;;5.30;80.60;;;;;;5042000;28;20033;-82
2022/03/07 11:01:34;;;;;;;12.25;7.63;;;5.10;79.60;;;;;;5043587;28;20033;-82
2022/03/07 11:04:00;;;;;;;9.82;7.15;;;5.40;78.50;;;;;;5044359;28;20017;-82
2022/03/07 11:06:27;;;;;;;9.73;7.05;;;5.40;77.60;;;;;;5050822;28;20028;-81
2022/03/07 11:08:53;;;;;;;10.48;7.15;;;5.30;78.20;;;;;;5044046;28;20024;-82
2022/03/07 11:11:20;;;;;;;11.52;7.28;;;5.60;77.10;;;;;;5049144;28;20041;-82
2022/03/07 11:13:51;;;;;;;8.75;6.25;;;5.80;76.10;;;;;;5045703;28;20039;-83
2022/03/07 11:16:19;;;;;;;10.38;5.80;;;6.00;75.30;;;;;;5045577;28;20536;-82
2022/03/07 11:18:51;;;;;;;9.32;5.93;;;6.00;74.60;;;;;;5059953;28;20030;-82
2022/03/07 11:21:17;;;;;;;8.43;5.60;;;6.20;75.70;;;;;;5041990;28;20128;-82
2022/03/07 11:23:43;;;;;;;8.88;5.05;;;6.10;73.80;;;;;;5049294;28;20044;-82
2022/03/07 11:26:09;;;;;;;8.45;4.78;;;6.50;72.30;;;;;;5038600;28;20045;-82
2022/03/07 11:28:35;;;;;;;7.55;4.80;;;6.70;71.90;;;;;;5047489;28;20380;-82
2022/03/07 11:31:00;;;;;;;8.40;5.15;;;6.60;71.00;;;;;;5045335;28;20025;-83
2022/03/07 11:33:33;;;;;;;8.32;5.55;;;6.80;72.00;;;;;;5062186;28;20472;-82
2022/03/07 11:36:01;;;;;;;10.90;5.63;;;6.80;71.90;;;;;;5051276;28;20039;-82
2022/03/07 11:38:31;;;;;;;5.82;4.03;;;6.90;70.40;;;;;;5043632;28;20036;-82
2022/03/07 11:41:14;;;;;;;7.38;4.70;;;7.20;68.20;;;;;;5046168;28;20055;-82
2022/03/07 11:44:01;;;;;;;8.85;4.88;;;7.20;66.60;;;;;;5041493;28;20025;-82
2022/03/07 11:47:07;;;;;;;7.60;4.95;;;7.60;68.20;;;;;;5043018;28;20029;-82
2022/03/07 11:49:32;;;;;;;7.47;4.65;;;7.80;67.30;;;;;;5047519;28;20068;-82
2022/03/07 11:52:00;;;;;;;9.52;5.65;;;7.50;66.40;;;;;;5048540;28;20365;-83
2022/03/07 11:54:26;;;;;;;7.68;4.65;;;7.70;68.20;;;;;;5051201;28;20507;-82
2022/03/07 11:56:51;;;;;;;9.20;4.63;;;8.10;66.70;;;;;;5043467;28;20025;-83
2022/03/07 11:59:27;;;;;;;7.20;4.90;;;8.40;65.50;;;;;;5038024;28;20037;-82
2022/03/07 12:01:53;;;;;;;8.63;4.65;;;8.70;65.20;;;;;;5045733;28;20056;-82
2022/03/07 12:04:19;;;;;;;7.88;4.93;;;8.90;63.70;;;;;;5051051;28;20022;-83
2022/03/07 12:06:47;;;;;;;6.70;4.40;;;9.30;63.40;;;;;;5041810;28;20461;-82